Time;durP1;ratioP1;P1;durP2;ratioP2;P2;SDS_P1;SDS_P2;PMS_P1;PMS_P2;Temp;Humidity;BMP_temperature;BMP_pressure;BME280_temperature;BME280_humidity;BME280_pressure;Samples;Min_cycle;Max_cycle;Signal;HPM_P1;HPM_P2
2022/03/28 00:01:35;;;;;;;23.60;11.63;;;8.50;99.90;;;;;;5074653;28;20213;-63
2022/03/28 00:04:02;;;;;;;24.00;12.93;;;8.40;99.90;;;;;;5074512;28;20227;-63
2022/03/28 00:06:30;;;;;;;23.27;11.97;;;8.40;99.90;;;;;;5074280;28;20229;-63
2022/03/28 00:08:57;;;;;;;19.87;11.70;;;8.40;99.90;;;;;;5074392;28;20223;-64
2022/03/28 00:11:23;;;;;;;23.03;12.53;;;8.30;99.90;;;;;;5074536;28;20633;-64
2022/03/28 00:13:50;;;;;;;22.40;12.37;;;8.30;1.00;;;;;;5074614;28;20399;-63
2022/03/28 00:16:17;;;;;;;22.90;11.93;;;8.30;99.90;;;;;;5073931;28;20225;-64
2022/03/28 00:18:45;;;;;;;20.40;11.30;;;8.30;99.90;;;;;;5074497;28;20270;-64
2022/03/28 00:21:11;;;;;;;20.93;12.17;;;8.30;99.90;;;;;;5073949;28;20209;-64
2022/03/28 00:23:38;;;;;;;27.17;13.37;;;8.30;99.90;;;;;;5074509;28;20201;-64
2022/03/28 00:26:04;;;;;;;21.47;11.20;;;8.20;99.90;;;;;;5073864;28;20715;-64
2022/03/28 00:28:31;;;;;;;22.50;12.13;;;8.10;99.90;;;;;;5074057;28;20679;-64
2022/03/28 00:30:58;;;;;;;22.30;11.27;;;8.10;99.90;;;;;;5074285;28;20629;-64
2022/03/28 00:33:24;;;;;;;21.27;10.70;;;8.10;99.90;;;;;;5073870;28;20221;-63
2022/03/28 00:35:52;;;;;;;23.67;11.50;;;8.00;99.90;;;;;;5073753;28;20240;-63
2022/03/28 00:38:19;;;;;;;21.27;11.93;;;8.00;99.90;;;;;;5073761;28;20213;-64
2022/03/28 00:40:46;;;;;;;22.20;11.50;;;8.00;99.90;;;;;;5074132;28;20209;-64
2022/03/28 00:43:12;;;;;;;27.07;12.43;;;8.00;99.90;;;;;;5074112;28;20227;-64
2022/03/28 00:45:41;;;;;;;24.03;12.17;;;7.90;1.00;;;;;;5073687;28;20221;-63
2022/03/28 00:48:09;;;;;;;23.63;12.13;;;7.90;1.00;;;;;;5073557;28;20216;-63
2022/03/28 00:50:37;;;;;;;23.03;12.70;;;7.80;1.00;;;;;;5073233;28;20213;-64
2022/03/28 00:53:07;;;;;;;22.70;12.17;;;7.80;1.00;;;;;;5073867;28;20208;-63
2022/03/28 00:55:34;;;;;;;25.30;12.33;;;7.70;99.90;;;;;;5073589;28;20308;-63
2022/03/28 00:58:01;;;;;;;23.60;12.73;;;7.70;99.90;;;;;;5073535;28;20589;-64
2022/03/28 01:00:27;;;;;;;22.53;11.97;;;7.60;99.90;;;;;;5073621;28;20207;-63
2022/03/28 01:02:55;;;;;;;25.60;12.67;;;7.60;99.90;;;;;;5073487;28;20205;-63
2022/03/28 01:05:22;;;;;;;22.97;12.13;;;7.60;99.90;;;;;;5073366;28;20228;-62
2022/03/28 01:07:48;;;;;;;23.00;12.40;;;7.60;99.90;;;;;;5073118;28;20266;-63
2022/03/28 01:10:17;;;;;;;23.40;12.33;;;7.60;99.90;;;;;;5073467;28;20215;-64
2022/03/28 01:12:44;;;;;;;24.80;11.97;;;7.60;99.90;;;;;;5073311;28;20216;-62
2022/03/28 01:15:13;;;;;;;25.67;12.07;;;7.50;99.90;;;;;;5073155;28;20236;-64
2022/03/28 01:20:26;;;;;;;21.57;11.50;;;7.50;1.00;;;;;;5073269;28;20207;-63
2022/03/28 01:22:54;;;;;;;24.03;12.37;;;7.50;1.00;;;;;;5073224;28;20250;-63
2022/03/28 01:25:23;;;;;;;25.80;12.83;;;7.40;49.90;;;;;;5073077;28;20228;-63
2022/03/28 01:27:50;;;;;;;23.13;12.30;;;7.40;99.90;;;;;;5072797;28;20200;-63
2022/03/28 01:30:17;;;;;;;21.77;12.57;;;7.50;99.90;;;;;;5072859;28;20212;-63
2022/03/28 01:32:45;;;;;;;23.37;12.20;;;7.40;99.90;;;;;;5072930;28;20729;-63
2022/03/28 01:35:12;;;;;;;23.30;12.73;;;7.40;99.90;;;;;;5072701;28;20228;-62
2022/03/28 01:37:39;;;;;;;23.37;11.97;;;7.40;99.90;;;;;;5072432;28;20213;-63
2022/03/28 01:40:08;;;;;;;21.23;11.03;;;7.40;99.90;;;;;;5072720;28;20739;-62
2022/03/28 01:42:35;;;;;;;19.10;11.10;;;7.40;1.00;;;;;;5072658;28;20582;-63
2022/03/28 01:45:01;;;;;;;23.23;11.33;;;7.30;1.00;;;;;;5072770;28;20209;-63
2022/03/28 01:47:28;;;;;;;25.00;12.97;;;7.30;1.00;;;;;;5072366;28;20254;-63
2022/03/28 01:49:54;;;;;;;25.17;13.40;;;7.30;1.00;;;;;;5072528;28;20671;-62
2022/03/28 01:52:21;;;;;;;24.20;13.33;;;7.30;93.80;;;;;;5072465;28;20204;-63
2022/03/28 01:54:48;;;;;;;23.40;12.33;;;7.20;99.90;;;;;;5072597;28;20225;-64
2022/03/28 01:57:16;;;;;;;26.13;13.70;;;7.20;99.90;;;;;;5071796;28;20227;-62
2022/03/28 01:59:42;;;;;;;23.90;12.97;;;7.20;99.90;;;;;;5072565;28;20212;-62
2022/03/28 02:02:09;;;;;;;24.17;12.43;;;7.20;99.90;;;;;;5071908;28;20240;-63
2022/03/28 02:04:35;;;;;;;25.20;12.60;;;7.20;99.90;;;;;;5072486;28;20280;-63
2022/03/28 02:07:02;;;;;;;22.53;12.13;;;7.20;99.90;;;;;;5071927;28;20277;-63
2022/03/28 02:09:29;;;;;;;23.63;12.03;;;7.10;1.00;;;;;;5071957;28;20204;-62
2022/03/28 02:11:55;;;;;;;21.00;11.77;;;7.10;1.00;;;;;;5072436;28;20288;-63
2022/03/28 02:14:23;;;;;;;23.63;12.43;;;7.00;99.90;;;;;;5072068;28;20660;-65
2022/03/28 02:16:50;;;;;;;23.40;12.00;;;7.10;99.90;;;;;;5071907;28;20221;-63
2022/03/28 02:19:17;;;;;;;23.67;12.47;;;7.10;1.00;;;;;;5072386;28;20212;-63
2022/03/28 02:21:43;;;;;;;27.67;13.37;;;7.10;70.90;;;;;;5072049;28;20212;-63
2022/03/28 02:24:10;;;;;;;22.83;11.63;;;7.10;99.90;;;;;;5072105;28;20238;-63
2022/03/28 02:26:36;;;;;;;23.30;12.17;;;7.10;1.00;;;;;;5071714;28;20278;-64
2022/03/28 02:29:03;;;;;;;22.70;11.87;;;7.10;1.00;;;;;;5072309;28;20211;-63
2022/03/28 02:31:31;;;;;;;27.73;13.57;;;7.10;99.90;;;;;;5071942;28;20204;-63
2022/03/28 02:33:58;;;;;;;25.67;12.87;;;7.10;99.90;;;;;;5071842;28;20300;-63
2022/03/28 02:36:24;;;;;;;22.97;12.13;;;7.20;1.00;;;;;;5071496;28;20284;-63
2022/03/28 02:38:51;;;;;;;27.33;13.50;;;7.20;99.90;;;;;;5071758;28;20215;-63
2022/03/28 02:41:18;;;;;;;23.63;11.80;;;7.20;9.60;;;;;;5072374;28;20261;-63
2022/03/28 02:43:45;;;;;;;21.23;11.10;;;7.20;99.90;;;;;;5072106;28;20584;-63
2022/03/28 02:46:11;;;;;;;26.70;12.37;;;7.10;99.90;;;;;;5071399;28;20294;-63
2022/03/28 02:48:39;;;;;;;23.67;12.27;;;7.10;99.90;;;;;;5071654;28;20205;-63
2022/03/28 02:51:06;;;;;;;24.30;13.07;;;7.00;99.90;;;;;;5071941;28;20216;-63
2022/03/28 02:53:33;;;;;;;26.33;12.37;;;7.00;99.90;;;;;;5071751;28;20211;-63
2022/03/28 02:56:00;;;;;;;24.60;12.10;;;7.00;77.70;;;;;;5071331;28;20230;-64
2022/03/28 02:58:27;;;;;;;23.23;11.80;;;6.90;1.00;;;;;;5071982;28;20295;-63
2022/03/28 03:00:54;;;;;;;28.20;13.20;;;6.90;1.00;;;;;;5071606;28;20207;-63
2022/03/28 03:03:20;;;;;;;26.70;12.83;;;6.90;1.00;;;;;;5071944;28;20216;-62
2022/03/28 03:05:49;;;;;;;24.97;11.60;;;6.90;99.90;;;;;;5071111;28;20672;-63
2022/03/28 03:08:16;;;;;;;24.63;12.53;;;6.80;99.90;;;;;;5071397;28;20721;-61
2022/03/28 03:10:43;;;;;;;27.63;12.87;;;6.80;1.00;;;;;;5071750;28;20629;-63
2022/03/28 03:13:10;;;;;;;24.13;12.33;;;6.80;1.00;;;;;;5071928;28;20677;-63
2022/03/28 03:15:38;;;;;;;26.27;12.03;;;6.80;99.90;;;;;;5075492;28;20238;-63
2022/03/28 03:18:05;;;;;;;27.33;12.73;;;6.80;1.00;;;;;;5075315;28;20214;-63
2022/03/28 03:20:32;;;;;;;24.80;12.67;;;6.90;99.90;;;;;;5075221;28;20765;-63
2022/03/28 03:23:00;;;;;;;25.50;13.37;;;6.80;99.90;;;;;;5075541;28;20216;-62
2022/03/28 03:25:26;;;;;;;28.63;12.97;;;6.80;1.00;;;;;;5075258;28;20227;-63
2022/03/28 03:27:53;;;;;;;25.47;13.03;;;6.80;1.00;;;;;;5075045;28;20268;-63
2022/03/28 03:30:20;;;;;;;23.13;12.07;;;6.80;1.00;;;;;;5075294;28;20627;-63
2022/03/28 03:32:47;;;;;;;27.10;13.20;;;6.80;1.00;;;;;;5075221;28;20638;-63
2022/03/28 03:35:14;;;;;;;23.80;12.70;;;6.70;1.00;;;;;;5074717;28;20284;-64
2022/03/28 03:37:40;;;;;;;25.30;12.20;;;6.70;1.00;;;;;;5074768;28;20219;-64
2022/03/28 03:40:12;;;;;;;24.07;12.17;;;6.70;1.00;;;;;;5074774;28;20219;-63
2022/03/28 03:42:39;;;;;;;20.47;11.10;;;6.60;1.00;;;;;;5075208;28;20211;-65
2022/03/28 03:45:07;;;;;;;22.90;11.20;;;6.60;1.00;;;;;;5074929;28;20210;-63
2022/03/28 03:47:34;;;;;;;24.63;11.93;;;6.60;1.00;;;;;;5074471;28;20210;-63
2022/03/28 03:50:01;;;;;;;29.13;12.07;;;6.60;1.00;;;;;;5075032;28;20629;-64
2022/03/28 03:52:27;;;;;;;22.43;11.57;;;6.60;1.00;;;;;;5074874;28;20212;-63
2022/03/28 03:54:54;;;;;;;38.37;18.87;;;6.60;1.00;;;;;;5074863;28;20227;-63
2022/03/28 03:57:22;;;;;;;21.57;11.87;;;6.50;1.00;;;;;;5074532;28;20207;-64
2022/03/28 03:59:48;;;;;;;23.20;12.10;;;6.60;1.00;;;;;;5074771;28;20206;-64
2022/03/28 04:02:15;;;;;;;24.37;11.90;;;6.50;1.00;;;;;;5074487;28;20210;-64
2022/03/28 04:04:42;;;;;;;24.90;12.30;;;6.50;1.00;;;;;;5074521;28;20210;-64
2022/03/28 04:07:09;;;;;;;23.27;12.03;;;6.50;1.00;;;;;;5074322;28;20221;-63
2022/03/28 04:09:37;;;;;;;26.07;12.37;;;6.50;1.00;;;;;;5074271;28;20214;-63
2022/03/28 04:12:04;;;;;;;28.00;12.73;;;6.50;1.80;;;;;;5074506;28;20205;-64
2022/03/28 04:14:32;;;;;;;26.00;12.43;;;6.50;5.60;;;;;;5074221;28;20700;-64
2022/03/28 04:16:59;;;;;;;24.63;12.80;;;6.40;7.10;;;;;;5074322;28;20231;-64
2022/03/28 04:19:25;;;;;;;24.27;11.97;;;6.40;8.40;;;;;;5074424;28;20211;-64
2022/03/28 04:21:52;;;;;;;25.23;12.10;;;6.40;8.80;;;;;;5074486;28;20211;-63
2022/03/28 04:24:20;;;;;;;24.60;11.60;;;6.30;7.00;;;;;;5074505;28;20214;-64
2022/03/28 04:26:47;;;;;;;23.40;11.50;;;6.30;2.40;;;;;;5073058;28;20232;-63
2022/03/28 04:29:14;;;;;;;22.63;11.93;;;6.30;1.00;;;;;;5074161;28;20667;-63
2022/03/28 04:31:42;;;;;;;22.87;11.00;;;6.30;1.00;;;;;;5074201;28;20270;-63
2022/03/28 04:34:09;;;;;;;22.23;11.23;;;6.20;1.00;;;;;;5074035;28;20318;-64
2022/03/28 04:36:37;;;;;;;28.27;12.97;;;6.20;1.00;;;;;;5073557;28;20260;-63
2022/03/28 04:39:05;;;;;;;26.23;11.63;;;6.20;1.00;;;;;;5074037;28;20252;-63
2022/03/28 04:41:32;;;;;;;24.87;12.30;;;6.20;1.00;;;;;;5074029;28;20301;-63
2022/03/28 04:43:59;;;;;;;29.20;13.70;;;6.20;1.00;;;;;;5073786;28;20206;-63
2022/03/28 04:46:25;;;;;;;28.90;13.43;;;6.20;1.00;;;;;;5073584;28;20223;-62
2022/03/28 04:48:53;;;;;;;25.17;12.83;;;6.20;1.00;;;;;;5073663;28;20721;-66
2022/03/28 04:51:20;;;;;;;25.23;13.97;;;6.30;2.70;;;;;;5072332;28;20669;-62
2022/03/28 04:53:46;;;;;;;25.40;13.10;;;6.30;7.50;;;;;;5073050;28;20389;-62
2022/03/28 04:56:13;;;;;;;31.70;14.23;;;6.30;5.50;;;;;;5072784;28;20303;-63
2022/03/28 04:58:40;;;;;;;29.23;13.20;;;6.20;6.00;;;;;;5073696;28;20214;-63
2022/03/28 05:01:07;;;;;;;28.87;13.57;;;6.20;4.00;;;;;;5073078;28;20359;-62
2022/03/28 05:03:33;;;;;;;28.33;13.30;;;6.10;1.00;;;;;;5073428;28;20213;-63
2022/03/28 05:06:02;;;;;;;28.00;14.47;;;6.00;1.00;;;;;;5072740;28;20223;-62
2022/03/28 05:08:29;;;;;;;26.17;13.50;;;6.00;1.00;;;;;;5073496;28;20236;-63
2022/03/28 05:10:55;;;;;;;28.93;12.83;;;6.00;1.00;;;;;;5072951;28;20207;-63
2022/03/28 05:13:25;;;;;;;28.10;13.27;;;6.00;1.00;;;;;;5072523;28;20209;-63
2022/03/28 05:15:52;;;;;;;23.67;11.93;;;6.00;1.00;;;;;;5072986;28;20221;-63
2022/03/28 05:18:19;;;;;;;24.23;13.57;;;6.00;1.00;;;;;;5072766;28;20201;-63
2022/03/28 05:20:45;;;;;;;29.20;13.63;;;6.00;1.00;;;;;;5073015;28;20212;-62
2022/03/28 05:23:13;;;;;;;24.97;13.17;;;6.00;1.00;;;;;;5071855;28;20210;-62
2022/03/28 05:25:40;;;;;;;29.13;13.33;;;5.90;1.00;;;;;;5066565;28;20229;-63
2022/03/28 05:28:07;;;;;;;28.13;13.93;;;5.90;1.00;;;;;;5072498;28;20447;-63
2022/03/28 05:30:33;;;;;;;31.53;13.60;;;5.90;1.00;;;;;;5072524;28;20563;-64
2022/03/28 05:33:00;;;;;;;28.23;13.40;;;5.90;1.00;;;;;;5072413;28;20206;-63
2022/03/28 05:35:27;;;;;;;29.60;13.97;;;5.90;1.00;;;;;;5071163;28;20267;-63
2022/03/28 05:37:54;;;;;;;30.00;13.47;;;5.90;1.00;;;;;;5070877;28;20208;-62
2022/03/28 05:40:22;;;;;;;24.37;11.90;;;5.90;1.00;;;;;;5072359;28;20550;-63
2022/03/28 05:42:49;;;;;;;24.80;13.63;;;5.90;1.00;;;;;;5072083;28;20202;-64
2022/03/28 05:45:16;;;;;;;28.60;12.50;;;5.90;1.00;;;;;;5071771;28;20475;-64
2022/03/28 05:47:43;;;;;;;25.90;12.73;;;6.00;1.00;;;;;;5071662;28;20205;-63
2022/03/28 05:50:10;;;;;;;30.50;15.23;;;6.00;1.00;;;;;;5072458;28;20613;-64
2022/03/28 05:52:37;;;;;;;25.77;13.33;;;6.00;1.00;;;;;;5071521;28;20321;-63
2022/03/28 05:55:04;;;;;;;30.97;14.57;;;6.00;1.00;;;;;;5071585;28;20232;-63
2022/03/28 05:57:33;;;;;;;29.33;13.60;;;6.10;1.00;;;;;;5071910;28;20201;-63
2022/03/28 05:59:59;;;;;;;25.73;14.97;;;6.10;1.00;;;;;;5071632;28;20208;-64
2022/03/28 06:02:26;;;;;;;29.40;14.00;;;6.20;1.00;;;;;;5071827;28;20205;-64
2022/03/28 06:04:52;;;;;;;31.23;15.40;;;6.20;1.00;;;;;;5071409;28;20636;-63
2022/03/28 06:07:19;;;;;;;31.17;16.27;;;6.30;2.80;;;;;;5071378;28;20230;-62
2022/03/28 06:09:46;;;;;;;29.07;14.40;;;6.30;11.30;;;;;;5072001;28;20209;-63
2022/03/28 06:12:13;;;;;;;31.37;15.30;;;6.40;15.50;;;;;;5071419;28;20210;-63
2022/03/28 06:14:41;;;;;;;31.80;15.07;;;6.50;16.20;;;;;;5071618;28;20209;-64
2022/03/28 06:17:08;;;;;;;32.30;15.77;;;6.50;18.40;;;;;;5071188;28;20273;-63
2022/03/28 06:19:34;;;;;;;31.67;14.77;;;6.60;19.00;;;;;;5071498;28;20209;-63
2022/03/28 06:22:01;;;;;;;27.83;14.23;;;6.70;22.50;;;;;;5071578;28;20211;-62
2022/03/28 06:24:27;;;;;;;31.13;14.73;;;6.70;28.40;;;;;;5070976;28;20249;-62
2022/03/28 06:26:54;;;;;;;31.87;15.63;;;6.80;33.60;;;;;;5071327;28;20268;-62
2022/03/28 06:29:21;;;;;;;27.60;15.47;;;6.90;38.40;;;;;;5071099;28;20213;-61
2022/03/28 06:31:49;;;;;;;30.77;16.20;;;7.00;44.20;;;;;;5071549;28;20429;-62
2022/03/28 06:34:16;;;;;;;32.33;15.70;;;7.10;47.50;;;;;;5070710;28;20234;-62
2022/03/28 06:36:44;;;;;;;35.53;16.83;;;7.10;50.50;;;;;;5070484;28;20321;-62
2022/03/28 06:39:11;;;;;;;26.47;15.33;;;7.20;53.70;;;;;;5071832;28;20209;-63
2022/03/28 06:41:38;;;;;;;25.90;14.27;;;7.30;55.30;;;;;;5071337;28;20215;-63
2022/03/28 06:44:07;;;;;;;29.77;14.77;;;7.50;44.70;;;;;;5071366;28;20205;-65
2022/03/28 06:46:34;;;;;;;23.90;14.63;;;7.60;36.10;;;;;;5071876;28;20289;-63
2022/03/28 06:49:02;;;;;;;25.13;13.53;;;7.70;29.70;;;;;;5071067;28;20205;-63
2022/03/28 06:51:29;;;;;;;25.97;13.80;;;7.90;26.30;;;;;;5071717;28;20622;-63
2022/03/28 06:53:55;;;;;;;24.03;13.40;;;8.00;20.10;;;;;;5071129;28;20258;-63
2022/03/28 06:56:22;;;;;;;23.53;13.37;;;8.20;14.30;;;;;;5071239;28;20236;-62
2022/03/28 06:58:48;;;;;;;26.00;13.60;;;8.30;1.00;;;;;;5072268;28;20209;-64
2022/03/28 07:01:15;;;;;;;25.17;13.30;;;8.50;1.00;;;;;;5071006;28;20590;-64
2022/03/28 07:03:42;;;;;;;23.43;11.97;;;8.60;1.00;;;;;;5071384;28;20212;-63
2022/03/28 07:06:10;;;;;;;;;;;8.70;1.00;;;;;;5071212;28;20044;-63
2022/03/28 07:08:37;;;;;;;;;;;8.90;1.00;;;;;;5072109;28;19920;-63
2022/03/28 07:11:03;;;;;;;;;;;9.00;1.00;;;;;;5071527;28;19974;-64
2022/03/28 07:13:30;;;;;;;;;;;9.20;1.00;;;;;;5071961;28;19966;-64
2022/03/28 07:15:56;;;;;;;;;;;9.30;1.00;;;;;;5071075;28;19925;-64
2022/03/28 07:18:23;;;;;;;;;;;9.50;99.90;;;;;;5071836;28;19924;-64
2022/03/28 07:20:50;;;;;;;;;;;9.60;99.90;;;;;;5071779;28;19921;-64
2022/03/28 07:23:18;;;;;;;;;;;9.70;99.90;;;;;;5071640;28;19927;-63
2022/03/28 07:25:45;;;;;;;;;;;9.90;99.90;;;;;;5072089;28;19920;-64
2022/03/28 07:28:14;;;;;;;26.33;13.63;;;10.00;1.00;;;;;;5071189;28;20619;-63
2022/03/28 07:30:41;;;;;;;;;;;10.10;99.90;;;;;;5072454;28;20102;-64
2022/03/28 07:33:08;;;;;;;27.40;16.55;;;10.20;1.00;;;;;;5070371;28;20416;-63
2022/03/28 07:35:36;;;;;;;28.13;16.00;;;10.30;99.90;;;;;;5070350;28;20235;-63
2022/03/28 07:38:03;;;;;;;;;;;10.50;99.90;;;;;;5071349;28;20102;-63
2022/03/28 07:40:31;;;;;;;29.10;17.65;;;10.70;99.90;;;;;;5069658;28;20836;-64
2022/03/28 07:42:58;;;;;;;31.67;19.38;;;10.90;99.90;;;;;;5069271;28;20430;-63
2022/03/28 07:45:25;;;;;;;31.75;18.10;;;11.20;99.90;;;;;;5069188;28;20469;-63
2022/03/28 07:47:51;;;;;;;28.65;17.60;;;11.30;92.10;;;;;;5069024;28;20439;-63
2022/03/28 07:50:18;;;;;;;28.23;17.60;;;11.40;99.90;;;;;;5069567;28;20510;-66
2022/03/28 07:52:45;;;;;;;29.35;17.83;;;11.70;1.00;;;;;;5069462;28;20415;-63
2022/03/28 07:55:13;;;;;;;27.27;17.80;;;11.90;99.90;;;;;;5068670;28;20422;-63
2022/03/28 07:57:43;;;;;;;30.55;18.50;;;12.00;99.90;;;;;;5069030;28;20426;-62
2022/03/28 08:00:12;;;;;;;30.13;18.00;;;12.30;31.80;;;;;;5069508;28;20461;-64
2022/03/28 08:02:39;;;;;;;29.20;18.58;;;12.50;1.00;;;;;;5072870;28;20449;-64
2022/03/28 08:05:07;;;;;;;28.30;18.20;;;12.50;1.00;;;;;;5071641;28;20775;-64
2022/03/28 08:07:33;;;;;;;28.00;18.73;;;12.60;99.90;;;;;;5072904;28;20453;-64
2022/03/28 08:10:00;;;;;;;28.30;17.83;;;12.80;99.90;;;;;;5072716;28;20406;-63
2022/03/28 08:12:28;;;;;;;32.53;19.27;;;12.70;99.90;;;;;;5072800;28;20414;-63
2022/03/28 08:14:56;;;;;;;25.75;17.20;;;12.70;99.90;;;;;;5072573;28;20420;-66
2022/03/28 08:17:23;;;;;;;28.10;18.17;;;12.80;99.90;;;;;;5072236;28;20824;-64
2022/03/28 08:19:50;;;;;;;28.35;18.35;;;12.80;99.90;;;;;;5072454;28;20457;-64
2022/03/28 08:22:17;;;;;;;27.20;18.23;;;13.00;99.90;;;;;;5072494;28;20914;-63
2022/03/28 08:24:44;;;;;;;26.10;17.70;;;13.10;99.90;;;;;;5071823;28;20415;-64
2022/03/28 08:27:11;;;;;;;28.52;18.83;;;13.30;99.90;;;;;;5072386;28;20827;-64
2022/03/28 08:29:38;;;;;;;24.73;17.25;;;13.40;99.90;;;;;;5072241;28;21248;-64
2022/03/28 08:32:06;;;;;;;29.73;18.90;;;13.70;6.30;;;;;;5072372;28;20419;-64
2022/03/28 08:34:33;;;;;;;29.15;18.75;;;13.70;1.00;;;;;;5071741;28;20780;-64
2022/03/28 08:37:00;;;;;;;29.83;19.00;;;13.90;1.00;;;;;;5071199;28;20429;-65
2022/03/28 08:39:27;;;;;;;26.03;17.97;;;14.10;1.00;;;;;;5072227;28;20446;-65
2022/03/28 08:41:55;;;;;;;29.20;19.80;;;14.30;1.00;;;;;;5071859;28;20453;-64
2022/03/28 08:44:23;;;;;;;27.48;18.88;;;14.40;1.00;;;;;;5071978;28;20959;-62
2022/03/28 08:46:54;;;;;;;27.90;18.95;;;14.40;1.00;;;;;;5071582;28;20421;-62
2022/03/28 08:49:22;;;;;;;27.35;18.77;;;14.50;1.00;;;;;;5071823;28;20422;-63
2022/03/28 08:51:49;;;;;;;29.53;19.27;;;14.50;99.90;;;;;;5071880;28;20416;-64
2022/03/28 08:54:16;;;;;;;30.42;19.13;;;14.40;99.90;;;;;;5071804;28;20514;-66
2022/03/28 08:56:42;;;;;;;29.48;19.10;;;14.50;99.90;;;;;;5071459;28;20427;-64
2022/03/28 08:59:09;;;;;;;30.70;20.45;;;14.70;99.90;;;;;;5071601;28;20412;-64
2022/03/28 09:01:37;;;;;;;29.57;19.03;;;14.70;99.90;;;;;;5071866;28;20422;-63
2022/03/28 09:04:08;;;;;;;29.50;19.08;;;14.80;99.90;;;;;;5071628;28;20450;-63
2022/03/28 09:06:37;;;;;;;28.10;19.30;;;15.00;99.90;;;;;;5070857;28;20914;-64
2022/03/28 09:09:16;;;;;;;30.45;20.27;;;14.90;99.90;;;;;;5071893;28;20426;-64
2022/03/28 09:11:44;;;;;;;28.50;19.42;;;14.90;99.90;;;;;;5071254;28;20476;-66
2022/03/28 09:14:23;;;;;;;30.95;19.45;;;15.20;99.90;;;;;;5071488;28;20407;-65
2022/03/28 09:17:02;;;;;;;31.13;19.73;;;15.30;99.90;;;;;;5070426;28;20428;-65
2022/03/28 09:19:42;;;;;;;29.58;19.90;;;15.50;99.90;;;;;;5071243;28;20486;-64
2022/03/28 09:22:15;;;;;;;30.25;20.67;;;15.70;99.90;;;;;;5071479;28;20473;-64
2022/03/28 09:24:43;;;;;;;32.73;20.73;;;15.70;99.90;;;;;;5070643;28;20472;-65
2022/03/28 09:27:17;;;;;;;29.83;19.73;;;15.70;99.90;;;;;;5070342;28;20424;-65
2022/03/28 09:29:54;;;;;;;30.88;20.65;;;15.70;99.90;;;;;;5071038;28;20492;-66
2022/03/28 09:32:22;;;;;;;30.02;20.42;;;15.50;99.90;;;;;;5071220;28;20506;-65
2022/03/28 09:35:03;;;;;;;29.88;21.00;;;15.80;99.90;;;;;;5071047;28;20416;-66
2022/03/28 09:37:31;;;;;;;30.27;19.83;;;15.80;99.90;;;;;;5070122;28;20424;-65
2022/03/28 09:39:58;;;;;;;29.88;19.25;;;15.90;99.90;;;;;;5071321;28;20473;-64
2022/03/28 09:42:24;;;;;;;28.73;18.52;;;16.00;99.90;;;;;;5070903;28;20411;-64
2022/03/28 09:44:53;;;;;;;30.15;19.17;;;16.20;99.90;;;;;;5070725;28;20408;-65
2022/03/28 09:47:23;;;;;;;30.73;19.37;;;16.30;99.90;;;;;;5070127;28;20777;-65
2022/03/28 09:49:54;;;;;;;28.65;19.35;;;16.10;99.90;;;;;;5070744;28;20414;-65
2022/03/28 09:52:25;;;;;;;28.90;19.20;;;16.00;99.90;;;;;;5070985;28;20423;-65
2022/03/28 09:54:55;;;;;;;29.95;19.65;;;16.20;99.90;;;;;;5070260;28;20419;-65
2022/03/28 09:57:24;;;;;;;29.10;18.83;;;16.30;99.90;;;;;;5070484;28;20550;-63
2022/03/28 09:59:52;;;;;;;31.27;20.40;;;16.40;99.90;;;;;;5070333;28;20411;-65
2022/03/28 10:02:22;;;;;;;28.90;18.88;;;16.20;99.90;;;;;;5070827;28;20419;-64
2022/03/28 10:04:51;;;;;;;29.75;19.67;;;16.30;99.90;;;;;;5070742;28;20415;-65
2022/03/28 10:07:18;;;;;;;30.33;19.92;;;16.10;99.90;;;;;;5070127;28;20948;-65
2022/03/28 10:09:44;;;;;;;29.67;19.50;;;16.20;99.90;;;;;;5070650;28;20423;-67
2022/03/28 10:12:14;;;;;;;29.65;20.40;;;16.20;99.90;;;;;;5070359;28;20545;-65
2022/03/28 10:14:40;;;;;;;31.88;20.77;;;16.40;99.90;;;;;;5070057;28;20416;-65
2022/03/28 10:17:08;;;;;;;31.65;21.20;;;16.60;99.90;;;;;;5069407;28;20473;-66
2022/03/28 10:19:37;;;;;;;31.95;20.75;;;16.80;99.90;;;;;;5070355;28;20415;-67
2022/03/28 10:22:08;;;;;;;35.05;21.38;;;16.80;99.90;;;;;;5070395;28;21020;-65
2022/03/28 10:24:36;;;;;;;32.42;21.33;;;16.80;99.90;;;;;;5069160;28;20468;-63
2022/03/28 10:27:05;;;;;;;34.70;21.40;;;16.80;99.90;;;;;;5069386;28;20944;-63
2022/03/28 10:29:37;;;;;;;34.38;20.95;;;16.70;99.90;;;;;;5069952;28;20416;-63
2022/03/28 10:32:08;;;;;;;33.47;21.42;;;16.90;99.90;;;;;;5070220;28;20423;-65
2022/03/28 10:34:59;;;;;;;32.92;20.80;;;17.00;99.90;;;;;;5070131;28;20416;-64
2022/03/28 10:37:34;;;;;;;34.50;20.77;;;17.10;99.90;;;;;;5064554;28;20423;-64
2022/03/28 10:40:21;;;;;;;31.10;20.30;;;17.30;99.90;;;;;;5069852;28;20494;-64
2022/03/28 10:42:51;;;;;;;33.17;20.73;;;17.60;99.90;;;;;;5069621;28;20411;-64
2022/03/28 10:45:21;;;;;;;31.65;20.52;;;17.70;99.90;;;;;;5069716;28;20416;-64
2022/03/28 10:47:51;;;;;;;30.02;19.95;;;17.70;99.90;;;;;;5069038;28;20821;-66
2022/03/28 10:50:21;;;;;;;31.73;19.50;;;17.90;99.90;;;;;;5069450;28;20790;-65
2022/03/28 10:53:04;;;;;;;31.38;19.17;;;18.00;99.90;;;;;;5069930;28;20498;-65
2022/03/28 10:55:35;;;;;;;34.40;20.73;;;18.00;99.90;;;;;;5066413;28;20427;-65
2022/03/28 10:58:11;;;;;;;36.50;22.40;;;17.90;99.90;;;;;;5069463;28;20794;-64
2022/03/28 11:00:39;;;;;;;32.70;21.35;;;17.70;99.90;;;;;;5069458;28;20414;-65
2022/03/28 11:03:05;;;;;;;34.97;21.77;;;17.90;99.90;;;;;;5068918;28;20416;-64
2022/03/28 11:05:53;;;;;;;31.98;20.77;;;17.90;99.90;;;;;;5070352;28;20469;-65
2022/03/28 11:08:33;;;;;;;30.10;19.23;;;18.10;99.90;;;;;;5071243;28;20407;-65
2022/03/28 11:11:17;;;;;;;36.10;22.17;;;18.30;99.90;;;;;;5070708;28;20415;-65
2022/03/28 11:13:44;;;;;;;31.13;19.92;;;18.40;99.90;;;;;;5069566;28;20426;-64
2022/03/28 11:16:20;;;;;;;31.30;20.50;;;18.50;99.90;;;;;;5068964;28;20426;-65
2022/03/28 11:19:20;;;;;;;33.17;21.40;;;18.70;99.90;;;;;;5069009;28;20447;-63
2022/03/28 11:22:08;;;;;;;32.23;20.50;;;18.60;99.90;;;;;;5069293;28;20512;-63
2022/03/28 11:24:45;;;;;;;31.35;19.90;;;18.70;99.90;;;;;;5068872;28;20781;-63
2022/03/28 11:27:12;;;;;;;35.70;21.57;;;18.90;99.90;;;;;;5068948;28;20417;-64
2022/03/28 11:29:39;;;;;;;32.75;21.30;;;18.70;99.90;;;;;;5069661;28;20419;-64
2022/03/28 11:32:09;;;;;;;31.98;20.13;;;18.70;99.90;;;;;;5069246;28;20925;-66
2022/03/28 11:34:35;;;;;;;35.80;22.00;;;18.80;99.90;;;;;;5069225;28;20525;-66
2022/03/28 11:37:04;;;;;;;35.03;21.90;;;18.80;99.90;;;;;;5071972;28;20428;-65
2022/03/28 11:39:32;;;;;;;33.67;21.52;;;18.80;99.90;;;;;;5073302;28;20778;-65
2022/03/28 11:41:58;;;;;;;35.00;22.02;;;18.70;99.90;;;;;;5073296;28;20414;-65
2022/03/28 11:44:25;;;;;;;36.80;21.60;;;18.60;99.90;;;;;;5072851;28;20423;-64
2022/03/28 11:46:57;;;;;;;35.53;21.50;;;18.80;99.90;;;;;;5072321;28;20418;-65
2022/03/28 11:49:25;;;;;;;34.07;22.17;;;18.90;99.90;;;;;;5072844;28;20411;-66
2022/03/28 11:51:52;;;;;;;34.40;21.23;;;18.60;99.90;;;;;;5073315;28;20422;-66
2022/03/28 11:54:22;;;;;;;33.10;21.88;;;18.40;99.90;;;;;;5072443;28;20423;-66
2022/03/28 11:59:41;;;;;;;32.03;20.08;;;18.30;99.90;;;;;;5072773;28;20445;-66
2022/03/28 12:02:08;;;;;;;36.47;22.27;;;18.70;99.90;;;;;;5073077;28;20509;-67
2022/03/28 12:04:44;;;;;;;33.40;21.77;;;18.90;99.90;;;;;;5073408;28;20418;-65
2022/03/28 12:07:11;;;;;;;35.65;22.10;;;19.20;99.90;;;;;;5072922;28;20408;-66
2022/03/28 12:09:41;;;;;;;35.13;21.50;;;19.20;99.90;;;;;;5072535;28;20786;-64
2022/03/28 12:12:09;;;;;;;34.83;21.93;;;18.80;99.90;;;;;;5072232;28;20447;-64
2022/03/28 12:14:35;;;;;;;34.97;23.13;;;18.80;99.90;;;;;;5072582;28;20523;-64
2022/03/28 12:17:04;;;;;;;39.50;23.33;;;18.60;99.90;;;;;;5072263;28;20427;-63
2022/03/28 12:19:31;;;;;;;36.35;22.85;;;18.70;99.90;;;;;;5072068;28;20419;-65
2022/03/28 12:22:12;;;;;;;34.75;22.23;;;18.50;99.90;;;;;;5072598;28;20419;-64
2022/03/28 12:24:49;;;;;;;35.20;21.90;;;18.70;99.90;;;;;;5071664;28;20416;-64
2022/03/28 12:27:19;;;;;;;35.50;22.13;;;19.10;99.90;;;;;;5072032;28;20494;-65
2022/03/28 12:29:46;;;;;;;33.07;21.40;;;18.70;99.90;;;;;;5072370;28;20770;-65
2022/03/28 12:32:16;;;;;;;42.13;27.57;;;19.00;99.90;;;;;;5072354;28;20473;-66
2022/03/28 12:34:43;;;;;;;37.05;22.50;;;18.80;99.90;;;;;;5071872;28;20473;-65
2022/03/28 12:37:15;;;;;;;35.00;22.48;;;18.80;99.90;;;;;;5071171;28;20427;-65
2022/03/28 12:39:43;;;;;;;34.85;21.58;;;18.70;99.90;;;;;;5072445;28;20490;-65
2022/03/28 12:42:24;;;;;;;33.40;21.55;;;18.90;99.90;;;;;;5072179;28;20490;-65
2022/03/28 12:44:53;;;;;;;34.70;21.98;;;18.90;99.90;;;;;;5071736;28;20415;-65
2022/03/28 12:47:20;;;;;;;35.42;22.13;;;19.00;99.90;;;;;;5071520;28;20459;-65
2022/03/28 12:49:47;;;;;;;36.65;22.25;;;18.80;99.90;;;;;;5072116;28;20411;-65
2022/03/28 12:52:19;;;;;;;36.17;20.85;;;18.90;99.90;;;;;;5072171;28;20418;-64